sensor_id;sensor_type;location;lat;lon;timestamp;temperature;humidity
78297;DHT22;67555;47.660;19.622;2023-12-20T00:02:21;3.40;76.30
78297;DHT22;67555;47.660;19.622;2023-12-20T00:04:47;3.40;76.20
78297;DHT22;67555;47.660;19.622;2023-12-20T00:07:12;3.40;76.20
78297;DHT22;67555;47.660;19.622;2023-12-20T00:09:38;3.40;76.20
78297;DHT22;67555;47.660;19.622;2023-12-20T00:12:04;3.50;76.10
78297;DHT22;67555;47.660;19.622;2023-12-20T00:14:30;3.40;76.10
78297;DHT22;67555;47.660;19.622;2023-12-20T00:16:56;3.30;76.50
78297;DHT22;67555;47.660;19.622;2023-12-20T00:19:22;3.30;76.60
78297;DHT22;67555;47.660;19.622;2023-12-20T00:21:48;3.30;76.70
78297;DHT22;67555;47.660;19.622;2023-12-20T00:24:13;3.30;76.60
78297;DHT22;67555;47.660;19.622;2023-12-20T00:26:39;3.40;76.60
78297;DHT22;67555;47.660;19.622;2023-12-20T00:29:05;3.50;76.40
78297;DHT22;67555;47.660;19.622;2023-12-20T00:31:30;3.50;76.20
78297;DHT22;67555;47.660;19.622;2023-12-20T00:33:56;3.50;76.10
78297;DHT22;67555;47.660;19.622;2023-12-20T00:36:22;3.40;76.20
78297;DHT22;67555;47.660;19.622;2023-12-20T00:38:49;3.40;76.30
78297;DHT22;67555;47.660;19.622;2023-12-20T00:41:16;3.30;76.40
78297;DHT22;67555;47.660;19.622;2023-12-20T00:43:43;3.50;76.40
78297;DHT22;67555;47.660;19.622;2023-12-20T00:46:09;3.50;76.20
78297;DHT22;67555;47.660;19.622;2023-12-20T00:48:35;3.50;76.10
78297;DHT22;67555;47.660;19.622;2023-12-20T00:51:01;3.50;76.00
78297;DHT22;67555;47.660;19.622;2023-12-20T00:53:27;3.50;75.90
78297;DHT22;67555;47.660;19.622;2023-12-20T00:55:53;3.50;76.00
78297;DHT22;67555;47.660;19.622;2023-12-20T00:58:19;3.50;76.10
78297;DHT22;67555;47.660;19.622;2023-12-20T01:00:47;3.50;76.20
78297;DHT22;67555;47.660;19.622;2023-12-20T01:03:13;3.50;76.40
78297;DHT22;67555;47.660;19.622;2023-12-20T01:05:39;3.40;76.50
78297;DHT22;67555;47.660;19.622;2023-12-20T01:08:05;3.30;76.70
78297;DHT22;67555;47.660;19.622;2023-12-20T01:10:31;3.30;76.80
78297;DHT22;67555;47.660;19.622;2023-12-20T01:12:57;3.30;77.10
78297;DHT22;67555;47.660;19.622;2023-12-20T01:15:23;3.20;77.40
78297;DHT22;67555;47.660;19.622;2023-12-20T01:17:49;3.10;77.80
78297;DHT22;67555;47.660;19.622;2023-12-20T01:20:15;3.10;77.90
78297;DHT22;67555;47.660;19.622;2023-12-20T01:22:40;3.10;77.80
78297;DHT22;67555;47.660;19.622;2023-12-20T01:25:08;3.20;77.70
78297;DHT22;67555;47.660;19.622;2023-12-20T01:27:34;3.20;77.60
78297;DHT22;67555;47.660;19.622;2023-12-20T01:30:00;3.10;77.60
78297;DHT22;67555;47.660;19.622;2023-12-20T01:32:26;3.10;77.90
78297;DHT22;67555;47.660;19.622;2023-12-20T01:34:51;3.10;77.90
78297;DHT22;67555;47.660;19.622;2023-12-20T01:37:17;3.10;78.00
78297;DHT22;67555;47.660;19.622;2023-12-20T01:39:43;3.10;78.30
78297;DHT22;67555;47.660;19.622;2023-12-20T01:42:08;3.10;78.30
78297;DHT22;67555;47.660;19.622;2023-12-20T01:44:34;3.10;78.50
78297;DHT22;67555;47.660;19.622;2023-12-20T01:47:00;3.10;78.50
78297;DHT22;67555;47.660;19.622;2023-12-20T01:49:26;3.10;78.20
78297;DHT22;67555;47.660;19.622;2023-12-20T01:51:52;3.10;77.80
78297;DHT22;67555;47.660;19.622;2023-12-20T01:54:19;3.10;77.90
78297;DHT22;67555;47.660;19.622;2023-12-20T01:56:46;3.00;78.20
78297;DHT22;67555;47.660;19.622;2023-12-20T01:59:12;2.90;78.60
78297;DHT22;67555;47.660;19.622;2023-12-20T02:01:38;2.90;78.80
78297;DHT22;67555;47.660;19.622;2023-12-20T02:04:04;2.80;79.00
78297;DHT22;67555;47.660;19.622;2023-12-20T02:06:30;2.90;79.20
78297;DHT22;67555;47.660;19.622;2023-12-20T02:08:59;3.00;79.00
78297;DHT22;67555;47.660;19.622;2023-12-20T02:11:26;3.10;78.50
78297;DHT22;67555;47.660;19.622;2023-12-20T02:13:52;3.20;78.00
78297;DHT22;67555;47.660;19.622;2023-12-20T02:16:18;3.30;77.50
78297;DHT22;67555;47.660;19.622;2023-12-20T02:18:44;3.30;77.00
78297;DHT22;67555;47.660;19.622;2023-12-20T02:21:10;3.40;77.00
78297;DHT22;67555;47.660;19.622;2023-12-20T02:23:36;3.30;76.80
78297;DHT22;67555;47.660;19.622;2023-12-20T02:26:03;3.30;76.90
78297;DHT22;67555;47.660;19.622;2023-12-20T02:28:29;3.30;76.90
78297;DHT22;67555;47.660;19.622;2023-12-20T02:30:55;3.40;76.70
78297;DHT22;67555;47.660;19.622;2023-12-20T02:33:21;3.50;76.50
78297;DHT22;67555;47.660;19.622;2023-12-20T02:35:47;3.40;76.50
78297;DHT22;67555;47.660;19.622;2023-12-20T02:38:13;3.30;76.50
78297;DHT22;67555;47.660;19.622;2023-12-20T02:40:38;3.40;76.60
78297;DHT22;67555;47.660;19.622;2023-12-20T02:43:04;3.40;76.50
78297;DHT22;67555;47.660;19.622;2023-12-20T02:45:30;3.40;76.30
78297;DHT22;67555;47.660;19.622;2023-12-20T02:47:56;3.50;76.30
78297;DHT22;67555;47.660;19.622;2023-12-20T02:50:21;3.50;76.20
78297;DHT22;67555;47.660;19.622;2023-12-20T02:52:47;3.50;76.10
78297;DHT22;67555;47.660;19.622;2023-12-20T02:55:13;3.50;76.10
78297;DHT22;67555;47.660;19.622;2023-12-20T02:57:39;3.50;76.10
78297;DHT22;67555;47.660;19.622;2023-12-20T03:00:10;3.50;75.90
78297;DHT22;67555;47.660;19.622;2023-12-20T03:02:36;3.50;75.90
78297;DHT22;67555;47.660;19.622;2023-12-20T03:05:02;3.50;76.00
78297;DHT22;67555;47.660;19.622;2023-12-20T03:07:28;3.50;75.80
78297;DHT22;67555;47.660;19.622;2023-12-20T03:09:54;3.60;75.70
78297;DHT22;67555;47.660;19.622;2023-12-20T03:12:20;3.60;75.40
78297;DHT22;67555;47.660;19.622;2023-12-20T03:14:45;3.60;75.40
78297;DHT22;67555;47.660;19.622;2023-12-20T03:17:11;3.60;75.30
78297;DHT22;67555;47.660;19.622;2023-12-20T03:19:37;3.60;75.40
78297;DHT22;67555;47.660;19.622;2023-12-20T03:22:02;3.50;75.60
78297;DHT22;67555;47.660;19.622;2023-12-20T03:24:28;3.50;75.90
78297;DHT22;67555;47.660;19.622;2023-12-20T03:26:54;3.40;76.00
78297;DHT22;67555;47.660;19.622;2023-12-20T03:29:20;3.50;75.90
78297;DHT22;67555;47.660;19.622;2023-12-20T03:31:45;3.50;75.70
78297;DHT22;67555;47.660;19.622;2023-12-20T03:34:11;3.50;75.50
78297;DHT22;67555;47.660;19.622;2023-12-20T03:36:37;3.50;75.50
78297;DHT22;67555;47.660;19.622;2023-12-20T03:39:03;3.50;75.30
78297;DHT22;67555;47.660;19.622;2023-12-20T03:41:29;3.50;75.10
78297;DHT22;67555;47.660;19.622;2023-12-20T03:43:54;3.50;75.10
78297;DHT22;67555;47.660;19.622;2023-12-20T03:46:20;3.40;75.00
78297;DHT22;67555;47.660;19.622;2023-12-20T03:48:46;3.30;75.10
78297;DHT22;67555;47.660;19.622;2023-12-20T03:51:13;3.30;75.10
78297;DHT22;67555;47.660;19.622;2023-12-20T03:53:38;3.30;75.00
78297;DHT22;67555;47.660;19.622;2023-12-20T03:56:06;3.30;75.00
78297;DHT22;67555;47.660;19.622;2023-12-20T03:58:32;3.10;75.20
78297;DHT22;67555;47.660;19.622;2023-12-20T04:00:57;2.90;75.90
78297;DHT22;67555;47.660;19.622;2023-12-20T04:03:23;2.50;76.90
78297;DHT22;67555;47.660;19.622;2023-12-20T04:05:49;2.20;77.90
78297;DHT22;67555;47.660;19.622;2023-12-20T04:08:15;1.90;78.80
78297;DHT22;67555;47.660;19.622;2023-12-20T04:10:41;1.60;79.90
78297;DHT22;67555;47.660;19.622;2023-12-20T04:13:07;1.40;80.60
78297;DHT22;67555;47.660;19.622;2023-12-20T04:15:32;1.30;81.00
78297;DHT22;67555;47.660;19.622;2023-12-20T04:17:58;1.20;81.50
78297;DHT22;67555;47.660;19.622;2023-12-20T04:20:24;1.10;81.70
78297;DHT22;67555;47.660;19.622;2023-12-20T04:22:49;1.10;81.90
78297;DHT22;67555;47.660;19.622;2023-12-20T04:25:15;1.00;82.40
78297;DHT22;67555;47.660;19.622;2023-12-20T04:27:41;1.00;82.70
78297;DHT22;67555;47.660;19.622;2023-12-20T04:30:07;1.00;82.90
78297;DHT22;67555;47.660;19.622;2023-12-20T04:32:33;1.00;82.80
78297;DHT22;67555;47.660;19.622;2023-12-20T04:34:58;1.00;82.70
78297;DHT22;67555;47.660;19.622;2023-12-20T04:37:24;1.10;82.50
78297;DHT22;67555;47.660;19.622;2023-12-20T04:39:50;1.20;82.20
78297;DHT22;67555;47.660;19.622;2023-12-20T04:42:16;1.20;82.10
78297;DHT22;67555;47.660;19.622;2023-12-20T04:44:41;1.20;81.90
78297;DHT22;67555;47.660;19.622;2023-12-20T04:47:09;1.20;81.70
78297;DHT22;67555;47.660;19.622;2023-12-20T04:49:34;1.10;82.00
78297;DHT22;67555;47.660;19.622;2023-12-20T04:52:00;1.30;82.00
78297;DHT22;67555;47.660;19.622;2023-12-20T04:54:26;1.40;81.70
78297;DHT22;67555;47.660;19.622;2023-12-20T04:56:51;1.40;81.70
78297;DHT22;67555;47.660;19.622;2023-12-20T04:59:17;1.30;81.70
78297;DHT22;67555;47.660;19.622;2023-12-20T05:01:43;1.40;81.80
78297;DHT22;67555;47.660;19.622;2023-12-20T05:04:08;1.50;81.50
78297;DHT22;67555;47.660;19.622;2023-12-20T05:06:34;1.70;80.90
78297;DHT22;67555;47.660;19.622;2023-12-20T05:09:00;2.00;80.20
78297;DHT22;67555;47.660;19.622;2023-12-20T05:11:25;2.10;79.60
78297;DHT22;67555;47.660;19.622;2023-12-20T05:13:51;2.30;79.10
78297;DHT22;67555;47.660;19.622;2023-12-20T05:16:17;2.40;78.70
78297;DHT22;67555;47.660;19.622;2023-12-20T05:18:48;2.30;78.60
78297;DHT22;67555;47.660;19.622;2023-12-20T05:21:15;2.40;78.70
78297;DHT22;67555;47.660;19.622;2023-12-20T05:23:41;2.20;78.90
78297;DHT22;67555;47.660;19.622;2023-12-20T05:26:07;2.30;79.00
78297;DHT22;67555;47.660;19.622;2023-12-20T05:28:33;2.20;79.00
78297;DHT22;67555;47.660;19.622;2023-12-20T05:30:58;2.30;79.00
78297;DHT22;67555;47.660;19.622;2023-12-20T05:33:24;2.30;78.90
78297;DHT22;67555;47.660;19.622;2023-12-20T05:35:50;2.30;79.00
78297;DHT22;67555;47.660;19.622;2023-12-20T05:38:17;2.30;79.00
78297;DHT22;67555;47.660;19.622;2023-12-20T05:40:42;2.20;79.00
78297;DHT22;67555;47.660;19.622;2023-12-20T05:43:09;2.10;79.30
78297;DHT22;67555;47.660;19.622;2023-12-20T05:45:34;2.20;79.30
78297;DHT22;67555;47.660;19.622;2023-12-20T05:48:00;2.30;79.10
78297;DHT22;67555;47.660;19.622;2023-12-20T05:50:26;2.40;78.80
78297;DHT22;67555;47.660;19.622;2023-12-20T05:52:51;2.30;78.60
78297;DHT22;67555;47.660;19.622;2023-12-20T05:55:17;2.20;79.20
78297;DHT22;67555;47.660;19.622;2023-12-20T05:57:43;2.30;79.30
78297;DHT22;67555;47.660;19.622;2023-12-20T06:00:09;2.40;78.80
78297;DHT22;67555;47.660;19.622;2023-12-20T06:02:35;2.50;78.50
78297;DHT22;67555;47.660;19.622;2023-12-20T06:05:04;2.50;78.50
78297;DHT22;67555;47.660;19.622;2023-12-20T06:07:29;2.40;78.50
78297;DHT22;67555;47.660;19.622;2023-12-20T06:09:55;2.30;79.00
78297;DHT22;67555;47.660;19.622;2023-12-20T06:12:21;2.30;79.20
78297;DHT22;67555;47.660;19.622;2023-12-20T06:14:46;2.30;79.40
78297;DHT22;67555;47.660;19.622;2023-12-20T06:17:12;2.50;79.00
78297;DHT22;67555;47.660;19.622;2023-12-20T06:19:38;2.50;78.60
78297;DHT22;67555;47.660;19.622;2023-12-20T06:22:03;2.50;78.30
78297;DHT22;67555;47.660;19.622;2023-12-20T06:24:29;2.50;78.60
78297;DHT22;67555;47.660;19.622;2023-12-20T06:26:55;2.50;78.50
78297;DHT22;67555;47.660;19.622;2023-12-20T06:29:21;2.60;78.40
78297;DHT22;67555;47.660;19.622;2023-12-20T06:31:47;2.70;78.30
78297;DHT22;67555;47.660;19.622;2023-12-20T06:34:12;2.70;78.10
78297;DHT22;67555;47.660;19.622;2023-12-20T06:36:38;2.80;77.80
78297;DHT22;67555;47.660;19.622;2023-12-20T06:39:04;2.70;77.60
78297;DHT22;67555;47.660;19.622;2023-12-20T06:41:30;2.70;77.60
78297;DHT22;67555;47.660;19.622;2023-12-20T06:43:56;2.70;77.80
78297;DHT22;67555;47.660;19.622;2023-12-20T06:46:22;2.80;77.70
78297;DHT22;67555;47.660;19.622;2023-12-20T06:48:47;2.90;77.50
78297;DHT22;67555;47.660;19.622;2023-12-20T06:51:15;2.90;77.20
78297;DHT22;67555;47.660;19.622;2023-12-20T06:53:41;2.90;77.30
78297;DHT22;67555;47.660;19.622;2023-12-20T06:56:07;3.00;77.20
78297;DHT22;67555;47.660;19.622;2023-12-20T06:58:34;3.10;76.90
78297;DHT22;67555;47.660;19.622;2023-12-20T07:01:00;3.10;76.80
78297;DHT22;67555;47.660;19.622;2023-12-20T07:03:26;2.90;77.00
78297;DHT22;67555;47.660;19.622;2023-12-20T07:05:52;2.70;77.40
78297;DHT22;67555;47.660;19.622;2023-12-20T07:08:17;2.50;78.00
78297;DHT22;67555;47.660;19.622;2023-12-20T07:10:43;2.40;78.40
78297;DHT22;67555;47.660;19.622;2023-12-20T07:13:09;2.20;78.70
78297;DHT22;67555;47.660;19.622;2023-12-20T07:15:34;1.90;79.50
78297;DHT22;67555;47.660;19.622;2023-12-20T07:18:02;1.60;80.50
78297;DHT22;67555;47.660;19.622;2023-12-20T07:20:28;1.40;81.30
78297;DHT22;67555;47.660;19.622;2023-12-20T07:22:53;1.10;82.10
78297;DHT22;67555;47.660;19.622;2023-12-20T07:25:19;1.00;83.00
78297;DHT22;67555;47.660;19.622;2023-12-20T07:27:45;0.80;83.50
78297;DHT22;67555;47.660;19.622;2023-12-20T07:30:11;0.70;83.90
78297;DHT22;67555;47.660;19.622;2023-12-20T07:32:37;0.60;84.20
78297;DHT22;67555;47.660;19.622;2023-12-20T07:35:03;0.60;84.40
78297;DHT22;67555;47.660;19.622;2023-12-20T07:37:29;0.40;84.80
78297;DHT22;67555;47.660;19.622;2023-12-20T07:39:54;0.40;85.10
78297;DHT22;67555;47.660;19.622;2023-12-20T07:42:20;0.50;85.10
78297;DHT22;67555;47.660;19.622;2023-12-20T07:44:47;0.60;84.80
78297;DHT22;67555;47.660;19.622;2023-12-20T07:47:13;0.60;84.80
78297;DHT22;67555;47.660;19.622;2023-12-20T07:49:42;0.80;84.70
78297;DHT22;67555;47.660;19.622;2023-12-20T07:52:08;0.80;84.30
78297;DHT22;67555;47.660;19.622;2023-12-20T07:54:33;0.80;84.30
78297;DHT22;67555;47.660;19.622;2023-12-20T07:56:59;0.80;84.30
78297;DHT22;67555;47.660;19.622;2023-12-20T07:59:25;0.80;84.20
78297;DHT22;67555;47.660;19.622;2023-12-20T08:01:50;0.60;84.60
78297;DHT22;67555;47.660;19.622;2023-12-20T08:04:17;0.60;84.90
78297;DHT22;67555;47.660;19.622;2023-12-20T08:06:43;0.60;85.00
78297;DHT22;67555;47.660;19.622;2023-12-20T08:09:09;0.60;85.00
78297;DHT22;67555;47.660;19.622;2023-12-20T08:11:36;0.60;85.00
78297;DHT22;67555;47.660;19.622;2023-12-20T08:14:01;0.60;84.90
78297;DHT22;67555;47.660;19.622;2023-12-20T08:16:28;0.60;84.80
78297;DHT22;67555;47.660;19.622;2023-12-20T08:18:53;0.50;84.90
78297;DHT22;67555;47.660;19.622;2023-12-20T08:21:19;0.50;85.10
78297;DHT22;67555;47.660;19.622;2023-12-20T08:23:48;0.40;85.10
78297;DHT22;67555;47.660;19.622;2023-12-20T08:26:19;0.50;85.10
78297;DHT22;67555;47.660;19.622;2023-12-20T08:28:46;0.60;84.50
78297;DHT22;67555;47.660;19.622;2023-12-20T08:31:16;0.70;84.30
78297;DHT22;67555;47.660;19.622;2023-12-20T08:33:44;1.00;83.80
78297;DHT22;67555;47.660;19.622;2023-12-20T08:36:10;1.20;83.10
78297;DHT22;67555;47.660;19.622;2023-12-20T08:38:36;1.50;82.30
78297;DHT22;67555;47.660;19.622;2023-12-20T08:41:02;1.70;81.50
78297;DHT22;67555;47.660;19.622;2023-12-20T08:43:31;1.90;80.90
78297;DHT22;67555;47.660;19.622;2023-12-20T08:45:57;2.00;80.20
78297;DHT22;67555;47.660;19.622;2023-12-20T08:48:23;1.90;80.20
78297;DHT22;67555;47.660;19.622;2023-12-20T08:50:48;2.00;80.30
78297;DHT22;67555;47.660;19.622;2023-12-20T08:53:16;2.10;80.00
78297;DHT22;67555;47.660;19.622;2023-12-20T08:55:42;2.30;79.70
78297;DHT22;67555;47.660;19.622;2023-12-20T08:58:08;2.50;79.40
78297;DHT22;67555;47.660;19.622;2023-12-20T09:00:34;2.60;78.90
78297;DHT22;67555;47.660;19.622;2023-12-20T09:03:01;2.50;78.60
78297;DHT22;67555;47.660;19.622;2023-12-20T09:05:27;2.60;78.70
78297;DHT22;67555;47.660;19.622;2023-12-20T09:07:53;2.40;78.20
78297;DHT22;67555;47.660;19.622;2023-12-20T09:10:19;2.30;78.90
78297;DHT22;67555;47.660;19.622;2023-12-20T09:12:51;2.10;79.10
78297;DHT22;67555;47.660;19.622;2023-12-20T09:15:18;2.10;79.50
78297;DHT22;67555;47.660;19.622;2023-12-20T09:17:44;2.10;79.40
78297;DHT22;67555;47.660;19.622;2023-12-20T09:20:10;1.80;79.50
78297;DHT22;67555;47.660;19.622;2023-12-20T09:22:36;1.40;80.50
78297;DHT22;67555;47.660;19.622;2023-12-20T09:25:04;1.10;81.40
78297;DHT22;67555;47.660;19.622;2023-12-20T09:27:30;1.10;82.10
78297;DHT22;67555;47.660;19.622;2023-12-20T09:29:56;1.10;82.20
78297;DHT22;67555;47.660;19.622;2023-12-20T09:32:22;1.10;82.50
78297;DHT22;67555;47.660;19.622;2023-12-20T09:34:49;1.10;82.90
78297;DHT22;67555;47.660;19.622;2023-12-20T09:37:14;1.20;82.80
78297;DHT22;67555;47.660;19.622;2023-12-20T09:39:40;1.40;82.50
78297;DHT22;67555;47.660;19.622;2023-12-20T09:42:07;1.30;82.50
78297;DHT22;67555;47.660;19.622;2023-12-20T09:44:34;1.40;82.60
78297;DHT22;67555;47.660;19.622;2023-12-20T09:47:03;1.60;82.30
78297;DHT22;67555;47.660;19.622;2023-12-20T09:49:30;2.00;81.60
78297;DHT22;67555;47.660;19.622;2023-12-20T09:51:56;2.20;80.70
78297;DHT22;67555;47.660;19.622;2023-12-20T09:54:23;2.20;80.00
78297;DHT22;67555;47.660;19.622;2023-12-20T09:56:49;2.20;80.20
78297;DHT22;67555;47.660;19.622;2023-12-20T09:59:15;2.20;79.60
78297;DHT22;67555;47.660;19.622;2023-12-20T10:01:41;2.00;79.80
78297;DHT22;67555;47.660;19.622;2023-12-20T10:04:09;1.70;80.60
78297;DHT22;67555;47.660;19.622;2023-12-20T10:06:45;1.70;81.30
78297;DHT22;67555;47.660;19.622;2023-12-20T10:09:11;1.80;81.30
78297;DHT22;67555;47.660;19.622;2023-12-20T10:11:38;2.00;81.00
78297;DHT22;67555;47.660;19.622;2023-12-20T10:14:05;2.00;80.60
78297;DHT22;67555;47.660;19.622;2023-12-20T10:16:32;2.00;80.90
78297;DHT22;67555;47.660;19.622;2023-12-20T10:18:58;1.80;80.90
78297;DHT22;67555;47.660;19.622;2023-12-20T10:21:24;1.60;81.40
78297;DHT22;67555;47.660;19.622;2023-12-20T10:23:55;1.50;82.00
78297;DHT22;67555;47.660;19.622;2023-12-20T10:26:27;1.50;82.40
78297;DHT22;67555;47.660;19.622;2023-12-20T10:28:56;1.60;82.40
78297;DHT22;67555;47.660;19.622;2023-12-20T10:31:31;2.00;82.00
78297;DHT22;67555;47.660;19.622;2023-12-20T10:33:59;2.30;81.20
78297;DHT22;67555;47.660;19.622;2023-12-20T10:36:30;2.50;80.80
78297;DHT22;67555;47.660;19.622;2023-12-20T10:38:57;2.70;80.40
78297;DHT22;67555;47.660;19.622;2023-12-20T10:41:31;2.80;79.80
78297;DHT22;67555;47.660;19.622;2023-12-20T10:44:04;2.80;79.40
78297;DHT22;67555;47.660;19.622;2023-12-20T10:46:34;2.70;79.60
78297;DHT22;67555;47.660;19.622;2023-12-20T10:49:02;2.70;79.40
78297;DHT22;67555;47.660;19.622;2023-12-20T10:51:28;2.50;79.70
78297;DHT22;67555;47.660;19.622;2023-12-20T10:53:56;2.40;80.20
78297;DHT22;67555;47.660;19.622;2023-12-20T10:56:22;2.30;80.40
78297;DHT22;67555;47.660;19.622;2023-12-20T10:58:49;2.20;80.40
78297;DHT22;67555;47.660;19.622;2023-12-20T11:01:16;2.20;80.80
78297;DHT22;67555;47.660;19.622;2023-12-20T11:03:53;2.50;80.80
78297;DHT22;67555;47.660;19.622;2023-12-20T11:06:51;2.80;80.30
78297;DHT22;67555;47.660;19.622;2023-12-20T11:09:26;3.10;79.70
78297;DHT22;67555;47.660;19.622;2023-12-20T11:14:53;4.00;78.00
78297;DHT22;67555;47.660;19.622;2023-12-20T11:17:21;4.20;77.00
78297;DHT22;67555;47.660;19.622;2023-12-20T11:22:21;4.60;75.70
78297;DHT22;67555;47.660;19.622;2023-12-20T11:24:48;4.70;75.40
78297;DHT22;67555;47.660;19.622;2023-12-20T11:27:14;4.70;75.10
78297;DHT22;67555;47.660;19.622;2023-12-20T11:30:23;4.70;75.10
78297;DHT22;67555;47.660;19.622;2023-12-20T11:32:35;4.60;75.30
78297;DHT22;67555;47.660;19.622;2023-12-20T11:35:18;4.70;75.60
78297;DHT22;67555;47.660;19.622;2023-12-20T11:37:46;4.70;75.50
78297;DHT22;67555;47.660;19.622;2023-12-20T11:40:17;4.70;75.60
78297;DHT22;67555;47.660;19.622;2023-12-20T11:42:48;4.80;75.70
78297;DHT22;67555;47.660;19.622;2023-12-20T11:45:17;4.90;75.70
78297;DHT22;67555;47.660;19.622;2023-12-20T11:47:48;5.00;75.80
78297;DHT22;67555;47.660;19.622;2023-12-20T11:50:16;4.90;75.80
78297;DHT22;67555;47.660;19.622;2023-12-20T11:52:42;4.90;76.10
78297;DHT22;67555;47.660;19.622;2023-12-20T11:55:08;5.00;76.10
78297;DHT22;67555;47.660;19.622;2023-12-20T11:57:33;5.00;76.20
78297;DHT22;67555;47.660;19.622;2023-12-20T11:59:59;5.20;76.10
78297;DHT22;67555;47.660;19.622;2023-12-20T12:02:25;5.20;76.10
78297;DHT22;67555;47.660;19.622;2023-12-20T12:04:51;5.30;76.20
78297;DHT22;67555;47.660;19.622;2023-12-20T12:07:17;5.40;76.10
78297;DHT22;67555;47.660;19.622;2023-12-20T12:09:43;5.30;76.20
78297;DHT22;67555;47.660;19.622;2023-12-20T12:12:10;5.50;76.40
78297;DHT22;67555;47.660;19.622;2023-12-20T12:14:37;5.70;76.20
78297;DHT22;67555;47.660;19.622;2023-12-20T12:17:03;5.90;75.90
78297;DHT22;67555;47.660;19.622;2023-12-20T12:19:29;6.20;75.50
78297;DHT22;67555;47.660;19.622;2023-12-20T12:22:11;6.40;75.00
78297;DHT22;67555;47.660;19.622;2023-12-20T12:24:43;6.70;74.60
78297;DHT22;67555;47.660;19.622;2023-12-20T12:27:10;7.00;74.10
78297;DHT22;67555;47.660;19.622;2023-12-20T12:29:36;7.20;73.60
78297;DHT22;67555;47.660;19.622;2023-12-20T12:32:08;7.60;73.10
78297;DHT22;67555;47.660;19.622;2023-12-20T12:34:37;7.90;72.60
78297;DHT22;67555;47.660;19.622;2023-12-20T12:37:05;8.10;72.10
78297;DHT22;67555;47.660;19.622;2023-12-20T12:39:31;8.20;71.70
78297;DHT22;67555;47.660;19.622;2023-12-20T12:41:57;8.40;71.50
78297;DHT22;67555;47.660;19.622;2023-12-20T12:44:23;8.50;71.30
78297;DHT22;67555;47.660;19.622;2023-12-20T12:46:52;8.50;71.20
78297;DHT22;67555;47.660;19.622;2023-12-20T12:49:22;8.50;71.10
78297;DHT22;67555;47.660;19.622;2023-12-20T12:51:48;8.40;71.20
78297;DHT22;67555;47.660;19.622;2023-12-20T12:54:14;8.40;71.20
78297;DHT22;67555;47.660;19.622;2023-12-20T12:56:42;8.30;71.20
78297;DHT22;67555;47.660;19.622;2023-12-20T12:59:08;8.20;71.20
78297;DHT22;67555;47.660;19.622;2023-12-20T13:01:34;8.00;71.30
78297;DHT22;67555;47.660;19.622;2023-12-20T13:04:00;7.80;71.80
78297;DHT22;67555;47.660;19.622;2023-12-20T13:06:28;7.70;71.90
78297;DHT22;67555;47.660;19.622;2023-12-20T13:08:54;7.50;72.40
78297;DHT22;67555;47.660;19.622;2023-12-20T13:11:20;7.50;72.60
78297;DHT22;67555;47.660;19.622;2023-12-20T13:13:46;7.40;72.70
78297;DHT22;67555;47.660;19.622;2023-12-20T13:16:12;7.20;72.80
78297;DHT22;67555;47.660;19.622;2023-12-20T13:18:38;7.10;72.90
78297;DHT22;67555;47.660;19.622;2023-12-20T13:21:08;7.00;73.00
78297;DHT22;67555;47.660;19.622;2023-12-20T13:23:34;7.00;73.20
78297;DHT22;67555;47.660;19.622;2023-12-20T13:25:59;6.90;73.10
78297;DHT22;67555;47.660;19.622;2023-12-20T13:28:25;6.90;73.10
78297;DHT22;67555;47.660;19.622;2023-12-20T13:30:51;6.90;73.00
78297;DHT22;67555;47.660;19.622;2023-12-20T13:33:17;6.90;72.90
78297;DHT22;67555;47.660;19.622;2023-12-20T13:35:42;6.80;72.90
78297;DHT22;67555;47.660;19.622;2023-12-20T13:38:08;6.80;73.00
78297;DHT22;67555;47.660;19.622;2023-12-20T13:40:34;6.70;73.00
78297;DHT22;67555;47.660;19.622;2023-12-20T13:42:59;6.70;73.10
78297;DHT22;67555;47.660;19.622;2023-12-20T13:45:25;6.60;73.20
78297;DHT22;67555;47.660;19.622;2023-12-20T13:47:51;6.50;73.30
78297;DHT22;67555;47.660;19.622;2023-12-20T13:50:16;6.50;73.40
78297;DHT22;67555;47.660;19.622;2023-12-20T13:52:42;6.40;73.60
78297;DHT22;67555;47.660;19.622;2023-12-20T13:55:09;6.40;73.60
78297;DHT22;67555;47.660;19.622;2023-12-20T13:57:35;6.30;73.80
78297;DHT22;67555;47.660;19.622;2023-12-20T14:00:04;6.30;73.90
78297;DHT22;67555;47.660;19.622;2023-12-20T14:02:30;6.20;74.00
78297;DHT22;67555;47.660;19.622;2023-12-20T14:04:56;6.10;74.10
78297;DHT22;67555;47.660;19.622;2023-12-20T14:07:21;6.10;74.10
78297;DHT22;67555;47.660;19.622;2023-12-20T14:09:47;6.10;74.10
78297;DHT22;67555;47.660;19.622;2023-12-20T14:12:14;6.00;74.30
78297;DHT22;67555;47.660;19.622;2023-12-20T14:14:39;6.00;74.30
78297;DHT22;67555;47.660;19.622;2023-12-20T14:17:05;5.90;74.40
78297;DHT22;67555;47.660;19.622;2023-12-20T14:19:34;5.90;74.60
78297;DHT22;67555;47.660;19.622;2023-12-20T14:22:00;5.90;74.70
78297;DHT22;67555;47.660;19.622;2023-12-20T14:24:27;5.80;74.80
78297;DHT22;67555;47.660;19.622;2023-12-20T14:26:53;5.80;75.00
78297;DHT22;67555;47.660;19.622;2023-12-20T14:29:39;5.80;75.00
78297;DHT22;67555;47.660;19.622;2023-12-20T14:32:05;5.60;75.30
78297;DHT22;67555;47.660;19.622;2023-12-20T14:34:31;5.50;75.70
78297;DHT22;67555;47.660;19.622;2023-12-20T14:36:57;5.50;75.90
78297;DHT22;67555;47.660;19.622;2023-12-20T14:39:23;5.50;76.10
78297;DHT22;67555;47.660;19.622;2023-12-20T14:41:48;5.30;76.60
78297;DHT22;67555;47.660;19.622;2023-12-20T14:44:14;5.00;77.30
78297;DHT22;67555;47.660;19.622;2023-12-20T14:46:42;4.90;78.00
78297;DHT22;67555;47.660;19.622;2023-12-20T14:49:08;4.70;78.60
78297;DHT22;67555;47.660;19.622;2023-12-20T14:51:33;4.80;78.70
78297;DHT22;67555;47.660;19.622;2023-12-20T14:54:00;4.70;78.90
78297;DHT22;67555;47.660;19.622;2023-12-20T14:56:26;4.60;79.50
78297;DHT22;67555;47.660;19.622;2023-12-20T14:58:52;4.50;80.00
78297;DHT22;67555;47.660;19.622;2023-12-20T15:01:18;4.40;80.30
78297;DHT22;67555;47.660;19.622;2023-12-20T15:03:47;4.40;80.50
78297;DHT22;67555;47.660;19.622;2023-12-20T15:06:13;4.40;80.80
78297;DHT22;67555;47.660;19.622;2023-12-20T15:08:39;4.30;81.00
78297;DHT22;67555;47.660;19.622;2023-12-20T15:11:05;4.40;81.10
78297;DHT22;67555;47.660;19.622;2023-12-20T15:13:31;4.40;81.20
78297;DHT22;67555;47.660;19.622;2023-12-20T15:15:58;4.40;81.20
78297;DHT22;67555;47.660;19.622;2023-12-20T15:18:24;4.50;81.20
78297;DHT22;67555;47.660;19.622;2023-12-20T15:20:50;4.50;81.00
78297;DHT22;67555;47.660;19.622;2023-12-20T15:23:16;4.50;80.90
78297;DHT22;67555;47.660;19.622;2023-12-20T15:25:42;4.50;81.00
78297;DHT22;67555;47.660;19.622;2023-12-20T15:28:09;4.50;81.50
78297;DHT22;67555;47.660;19.622;2023-12-20T15:30:34;4.50;82.00
78297;DHT22;67555;47.660;19.622;2023-12-20T15:33:01;4.40;82.50